sensor_id;sensor_type;location;lat;lon;timestamp;pressure;altitude;pressure_sealevel;temperature;humidity
6851;BME280;3464;42.728;23.296;2023-12-29T00:00:39;95936.91;;;13.05;46.25
6851;BME280;3464;42.728;23.296;2023-12-29T00:03:06;95941.20;;;13.14;46.22
6851;BME280;3464;42.728;23.296;2023-12-29T00:05:34;95924.89;;;13.25;45.93
6851;BME280;3464;42.728;23.296;2023-12-29T00:08:01;95931.85;;;13.06;46.42
6851;BME280;3464;42.728;23.296;2023-12-29T00:10:29;95925.98;;;13.07;46.19
6851;BME280;3464;42.728;23.296;2023-12-29T00:12:57;95923.05;;;13.10;45.90
6851;BME280;3464;42.728;23.296;2023-12-29T00:15:25;95917.47;;;13.01;45.94
6851;BME280;3464;42.728;23.296;2023-12-29T00:17:52;95926.69;;;12.98;46.13
6851;BME280;3464;42.728;23.296;2023-12-29T00:20:20;95935.30;;;13.12;46.20
6851;BME280;3464;42.728;23.296;2023-12-29T00:22:47;95937.81;;;13.11;45.98
6851;BME280;3464;42.728;23.296;2023-12-29T00:25:15;95929.12;;;12.89;46.24
6851;BME280;3464;42.728;23.296;2023-12-29T00:27:41;95930.09;;;12.99;46.03
6851;BME280;3464;42.728;23.296;2023-12-29T00:30:08;95919.23;;;13.07;45.95
6851;BME280;3464;42.728;23.296;2023-12-29T00:32:35;95912.42;;;13.01;46.11
6851;BME280;3464;42.728;23.296;2023-12-29T00:35:02;95917.81;;;12.95;46.13
6851;BME280;3464;42.728;23.296;2023-12-29T00:37:28;95917.95;;;13.06;45.90
6851;BME280;3464;42.728;23.296;2023-12-29T00:39:55;95914.84;;;12.93;46.01
6851;BME280;3464;42.728;23.296;2023-12-29T00:42:21;95915.27;;;12.93;45.73
6851;BME280;3464;42.728;23.296;2023-12-29T00:44:48;95919.04;;;12.92;45.84
6851;BME280;3464;42.728;23.296;2023-12-29T00:47:15;95924.86;;;12.83;46.07
6851;BME280;3464;42.728;23.296;2023-12-29T00:49:41;95930.85;;;12.92;46.03
6851;BME280;3464;42.728;23.296;2023-12-29T00:52:09;95919.89;;;12.93;45.87
6851;BME280;3464;42.728;23.296;2023-12-29T00:54:35;95918.36;;;13.04;45.59
6851;BME280;3464;42.728;23.296;2023-12-29T00:57:03;95905.94;;;12.86;45.73
6851;BME280;3464;42.728;23.296;2023-12-29T00:59:30;95912.27;;;12.86;45.98
6851;BME280;3464;42.728;23.296;2023-12-29T01:01:56;95909.52;;;13.04;45.58
6851;BME280;3464;42.728;23.296;2023-12-29T01:04:23;95912.20;;;12.82;45.59
6851;BME280;3464;42.728;23.296;2023-12-29T01:06:50;95907.38;;;12.64;45.87
6851;BME280;3464;42.728;23.296;2023-12-29T01:09:17;95906.34;;;12.84;45.78
6851;BME280;3464;42.728;23.296;2023-12-29T01:11:45;95915.55;;;12.78;45.59
6851;BME280;3464;42.728;23.296;2023-12-29T01:14:13;95918.55;;;12.83;45.66
6851;BME280;3464;42.728;23.296;2023-12-29T01:16:40;95920.55;;;12.73;45.59
6851;BME280;3464;42.728;23.296;2023-12-29T01:22:28;95913.39;;;12.74;45.43
6851;BME280;3464;42.728;23.296;2023-12-29T01:25:03;95914.98;;;12.65;45.79
6851;BME280;3464;42.728;23.296;2023-12-29T01:27:33;95920.53;;;12.74;45.47
6851;BME280;3464;42.728;23.296;2023-12-29T01:30:03;95920.91;;;12.70;45.60
6851;BME280;3464;42.728;23.296;2023-12-29T01:35:48;95917.63;;;12.76;45.50
6851;BME280;3464;42.728;23.296;2023-12-29T01:38:16;95920.33;;;12.55;45.67
6851;BME280;3464;42.728;23.296;2023-12-29T01:40:44;95927.44;;;12.50;45.83
6851;BME280;3464;42.728;23.296;2023-12-29T01:43:11;95913.17;;;12.19;47.04
6851;BME280;3464;42.728;23.296;2023-12-29T01:45:37;95910.59;;;12.49;46.02
6851;BME280;3464;42.728;23.296;2023-12-29T01:48:05;95911.00;;;12.48;45.97
6851;BME280;3464;42.728;23.296;2023-12-29T01:50:32;95912.75;;;12.53;45.67
6851;BME280;3464;42.728;23.296;2023-12-29T01:52:58;95904.45;;;12.65;45.39
6851;BME280;3464;42.728;23.296;2023-12-29T01:55:25;95906.95;;;12.64;45.42
6851;BME280;3464;42.728;23.296;2023-12-29T01:57:51;95907.02;;;12.70;45.30
6851;BME280;3464;42.728;23.296;2023-12-29T02:00:19;95906.28;;;12.41;45.78
6851;BME280;3464;42.728;23.296;2023-12-29T02:02:46;95912.12;;;12.36;46.30
6851;BME280;3464;42.728;23.296;2023-12-29T02:05:14;95905.08;;;12.46;45.82
6851;BME280;3464;42.728;23.296;2023-12-29T02:07:48;95906.88;;;12.56;45.69
